createdAt,value
2019-06-07T00:00:39.421Z,99.99
2019-06-07T00:01:23.657Z,99.99
2019-06-07T00:02:22.648Z,99.99
2019-06-07T00:03:29.676Z,99.99
2019-06-07T00:04:23.626Z,99.99
2019-06-07T00:05:22.628Z,99.99
2019-06-07T00:06:25.362Z,99.99
2019-06-07T00:07:22.607Z,99.99
2019-06-07T00:08:27.934Z,99.99
2019-06-07T00:09:23.572Z,99.99
2019-06-07T00:10:36.189Z,99.99
2019-06-07T00:11:23.547Z,99.99
2019-06-07T00:12:22.537Z,99.99
2019-06-07T00:13:22.544Z,99.99
2019-06-07T00:14:22.553Z,99.99
2019-06-07T00:15:28.791Z,99.99
2019-06-07T00:16:23.647Z,99.99
2019-06-07T00:17:22.484Z,99.99
2019-06-07T00:18:25.962Z,99.99
2019-06-07T00:19:22.460Z,99.99
2019-06-07T00:20:23.581Z,99.99
2019-06-07T00:22:12.147Z,99.99
2019-06-07T00:22:32.619Z,99.99
2019-06-07T00:23:23.432Z,99.99
2019-06-07T00:24:22.408Z,99.99
2019-06-07T00:25:24.560Z,99.99
2019-06-07T00:26:22.388Z,99.99
2019-06-07T00:27:22.796Z,99.99
2019-06-07T00:28:22.412Z,99.99
2019-06-07T00:29:22.386Z,99.99
2019-06-07T00:30:41.094Z,99.99
2019-06-07T00:31:24.740Z,99.99
2019-06-07T00:32:22.486Z,99.99
2019-06-07T00:33:24.777Z,99.99
2019-06-07T00:34:23.204Z,99.99
2019-06-07T00:35:22.559Z,99.99
2019-06-07T00:36:23.294Z,99.99
2019-06-07T00:37:25.250Z,99.99
2019-06-07T00:38:22.257Z,99.99
2019-06-07T00:39:25.651Z,99.99
2019-06-07T00:40:31.441Z,99.99
2019-06-07T00:41:23.224Z,99.99
2019-06-07T00:42:24.234Z,99.99
2019-06-07T00:43:27.937Z,99.99
2019-06-07T00:44:23.658Z,99.99
2019-06-07T00:45:24.474Z,99.99
2019-06-07T00:46:25.286Z,99.99
2019-06-07T00:47:23.687Z,99.99
2019-06-07T00:48:31.778Z,99.99
2019-06-07T00:49:40.005Z,99.99
2019-06-07T00:50:24.332Z,99.99
2019-06-07T00:51:24.078Z,99.99
2019-06-07T00:53:11.645Z,99.99
2019-06-07T00:53:31.498Z,99.99
2019-06-07T00:54:24.730Z,99.99
2019-06-07T00:55:27.099Z,99.99
2019-06-07T00:56:23.535Z,99.99
2019-06-07T00:57:24.135Z,99.99
2019-06-07T00:58:27.461Z,99.99
2019-06-07T00:59:28.838Z,99.99
2019-06-07T01:00:25.486Z,99.99
2019-06-07T01:01:24.844Z,99.99
2019-06-07T01:02:26.007Z,99.99
2019-06-07T01:03:25.712Z,99.99
2019-06-07T01:04:23.679Z,99.99
2019-06-07T01:05:26.182Z,99.99
2019-06-07T01:06:24.813Z,99.99
2019-06-07T01:07:24.294Z,99.99
2019-06-07T01:08:27.550Z,99.99
2019-06-07T01:09:25.288Z,99.99
2019-06-07T01:10:50.170Z,99.99
2019-06-07T01:11:25.722Z,99.99
2019-06-07T01:12:23.883Z,99.99
2019-06-07T01:13:24.178Z,99.99
2019-06-07T01:14:24.526Z,99.99
2019-06-07T01:15:28.786Z,99.99
2019-06-07T01:16:25.721Z,99.99
2019-06-07T01:17:32.974Z,99.99
2019-06-07T01:18:37.321Z,99.99
2019-06-07T01:19:26.481Z,99.99
2019-06-07T01:20:24.179Z,99.99
2019-06-07T01:21:26.444Z,99.99
2019-06-07T01:22:27.108Z,99.99
2019-06-07T01:23:59.773Z,99.99
2019-06-07T01:24:25.672Z,99.99
2019-06-07T01:25:22.761Z,99.99
2019-06-07T01:26:24.163Z,99.99
2019-06-07T01:27:25.441Z,99.99
2019-06-07T01:28:24.842Z,99.99
2019-06-07T01:29:25.008Z,99.99
2019-06-07T01:30:23.251Z,99.99
2019-06-07T01:31:24.852Z,99.99
2019-06-07T01:32:24.676Z,99.99
2019-06-07T01:33:25.705Z,99.99
2019-06-07T01:34:25.706Z,99.99
2019-06-07T01:35:22.112Z,99.99
2019-06-07T01:36:24.375Z,99.99
2019-06-07T01:37:24.899Z,99.99
2019-06-07T01:38:24.486Z,99.99
2019-06-07T01:39:24.074Z,99.99
2019-06-07T01:40:27.758Z,99.99
2019-06-07T01:41:25.349Z,99.99
2019-06-07T01:42:24.571Z,99.99
2019-06-07T01:43:26.168Z,99.99
2019-06-07T01:44:27.306Z,99.99
2019-06-07T01:45:23.652Z,99.99
2019-06-07T01:46:25.353Z,99.99
2019-06-07T01:47:25.575Z,99.99
2019-06-07T01:48:25.411Z,99.99
2019-06-07T01:49:24.765Z,99.99
2019-06-07T01:50:24.752Z,99.99
2019-06-07T01:51:24.280Z,99.99
2019-06-07T01:52:23.511Z,99.99
2019-06-07T01:53:23.717Z,99.99
2019-06-07T01:55:23.956Z,99.99
2019-06-07T01:56:22.578Z,99.99
2019-06-07T01:57:43.189Z,99.99
2019-06-07T01:58:26.112Z,99.99
2019-06-07T01:59:23.142Z,99.99
2019-06-07T02:00:23.222Z,99.99
2019-06-07T02:01:23.320Z,99.99
2019-06-07T02:02:22.837Z,99.99
2019-06-07T02:03:25.847Z,99.99
2019-06-07T02:04:23.379Z,99.99
2019-06-07T02:05:23.179Z,99.99
2019-06-07T02:06:23.764Z,99.99
2019-06-07T02:07:26.909Z,99.99
2019-06-07T02:08:24.502Z,99.99
2019-06-07T02:09:23.368Z,99.99
2019-06-07T02:10:25.744Z,99.99
2019-06-07T02:11:23.786Z,99.99
2019-06-07T02:12:28.187Z,99.99
2019-06-07T02:13:23.745Z,99.99
2019-06-07T02:14:23.411Z,99.99
2019-06-07T02:15:23.153Z,99.99
2019-06-07T02:16:21.806Z,99.99
2019-06-07T02:17:25.209Z,99.99
2019-06-07T02:18:23.804Z,99.99
2019-06-07T02:19:22.034Z,99.99
2019-06-07T02:20:23.863Z,99.99
2019-06-07T02:21:24.665Z,99.99
2019-06-07T02:22:23.130Z,99.99
2019-06-07T02:23:23.238Z,99.99
2019-06-07T02:24:24.706Z,99.99
2019-06-07T02:25:38.297Z,99.99
2019-06-07T02:26:22.887Z,99.99
2019-06-07T02:27:24.220Z,99.99
2019-06-07T02:28:30.957Z,99.99
2019-06-07T02:29:22.910Z,99.99
2019-06-07T02:30:43.649Z,99.99
2019-06-07T02:31:24.382Z,99.99
2019-06-07T02:32:24.252Z,99.99
2019-06-07T02:33:25.836Z,99.99
2019-06-07T02:34:24.052Z,99.99
2019-06-07T02:35:25.606Z,99.99
2019-06-07T02:36:25.704Z,99.99
2019-06-07T02:37:24.200Z,99.99
2019-06-07T02:38:23.128Z,99.99
2019-06-07T02:39:23.945Z,99.99
2019-06-07T02:40:22.067Z,99.99
2019-06-07T02:41:25.815Z,99.99
2019-06-07T02:42:26.165Z,99.99
2019-06-07T02:43:22.152Z,99.99
2019-06-07T02:44:23.144Z,99.99
2019-06-07T02:45:24.142Z,99.99
2019-06-07T02:46:27.722Z,99.99
2019-06-07T02:47:22.760Z,99.99
2019-06-07T02:48:20.855Z,99.99
2019-06-07T02:49:20.872Z,99.99
2019-06-07T02:50:20.843Z,99.99
2019-06-07T02:51:20.832Z,99.99
2019-06-07T02:52:20.806Z,99.99
2019-06-07T02:53:20.800Z,99.99
2019-06-07T02:54:20.791Z,99.99
2019-06-07T02:55:20.794Z,99.99
2019-06-07T02:56:39.841Z,99.99
2019-06-07T02:57:21.752Z,99.99
2019-06-07T02:58:20.744Z,99.99
2019-06-07T02:59:45.643Z,99.99
2019-06-07T03:00:45.902Z,99.99
2019-06-07T03:01:21.763Z,99.99
2019-06-07T03:02:20.702Z,99.99
2019-06-07T03:03:22.278Z,99.99
2019-06-07T03:04:20.677Z,99.99
2019-06-07T03:05:20.669Z,99.99
2019-06-07T03:06:20.676Z,99.99
2019-06-07T03:07:20.646Z,99.99
2019-06-07T03:08:20.671Z,99.99
2019-06-07T03:09:20.627Z,99.99
2019-06-07T03:10:20.612Z,99.99
2019-06-07T03:11:20.614Z,99.99
2019-06-07T03:12:20.601Z,99.99
2019-06-07T03:13:20.581Z,99.99
2019-06-07T03:14:20.593Z,99.99
2019-06-07T03:15:32.895Z,99.99
2019-06-07T03:16:21.563Z,99.99
2019-06-07T03:17:20.542Z,99.99
2019-06-07T03:18:20.526Z,99.99
2019-06-07T03:19:20.531Z,99.99
2019-06-07T03:20:20.520Z,99.99
2019-06-07T03:21:20.529Z,99.99
2019-06-07T03:22:20.483Z,99.99
2019-06-07T03:23:20.475Z,99.99
2019-06-07T03:24:20.463Z,99.99
2019-06-07T03:25:20.452Z,99.99
2019-06-07T03:26:20.453Z,99.99
2019-06-07T03:27:34.888Z,99.99
2019-06-07T03:28:21.417Z,99.99
2019-06-07T03:29:20.411Z,99.99
2019-06-07T03:30:38.826Z,99.99
2019-06-07T03:31:21.413Z,99.99
2019-06-07T03:32:20.378Z,99.99
2019-06-07T03:33:20.404Z,99.99
2019-06-07T03:34:20.362Z,99.99
2019-06-07T03:35:20.343Z,99.99
2019-06-07T03:36:25.459Z,99.99
2019-06-07T03:37:21.320Z,99.99
2019-06-07T03:38:20.357Z,99.99
2019-06-07T03:39:20.301Z,99.99
2019-06-07T03:40:20.320Z,99.99
2019-06-07T03:41:20.307Z,99.99
2019-06-07T03:42:20.275Z,99.99
2019-06-07T03:43:20.258Z,99.99
2019-06-07T03:44:20.254Z,99.99
2019-06-07T03:45:20.245Z,99.99
2019-06-07T03:46:20.239Z,99.99
2019-06-07T03:47:20.308Z,99.99
2019-06-07T03:48:20.253Z,99.99
2019-06-07T03:49:20.196Z,99.99
2019-06-07T03:50:20.183Z,99.99
2019-06-07T03:51:25.152Z,99.99
2019-06-07T03:52:21.161Z,99.99
2019-06-07T03:53:20.157Z,99.99
2019-06-07T03:54:20.165Z,99.99
2019-06-07T03:55:20.167Z,99.99
2019-06-07T03:56:20.119Z,99.99
2019-06-07T03:57:20.120Z,99.99
2019-06-07T03:58:47.981Z,99.99
2019-06-07T03:59:21.090Z,99.99
2019-06-07T04:00:20.079Z,99.99
2019-06-07T04:01:20.122Z,99.99
2019-06-07T04:02:20.070Z,99.99
2019-06-07T04:03:33.296Z,99.99
2019-06-07T04:04:21.036Z,99.99
2019-06-07T04:05:20.049Z,99.99
2019-06-07T04:06:20.016Z,99.99
2019-06-07T04:07:20.043Z,99.99
2019-06-07T04:08:20.036Z,99.99
2019-06-07T04:09:19.977Z,99.99
2019-06-07T04:10:41.210Z,99.99
2019-06-07T04:11:20.958Z,99.99
2019-06-07T04:12:19.968Z,99.99
2019-06-07T04:13:19.938Z,99.99
2019-06-07T04:14:19.964Z,99.99
2019-06-07T04:15:19.917Z,99.99
2019-06-07T04:16:19.904Z,99.99
2019-06-07T04:17:19.917Z,99.99
2019-06-07T04:18:19.887Z,99.99
2019-06-07T04:19:19.874Z,99.99
2019-06-07T04:20:19.860Z,99.99
2019-06-07T04:21:19.873Z,99.99
2019-06-07T04:22:19.967Z,99.99
2019-06-07T04:23:29.866Z,99.99
2019-06-07T04:24:20.818Z,99.99
2019-06-07T04:25:19.809Z,99.99
2019-06-07T04:26:19.795Z,99.99
2019-06-07T04:27:19.799Z,99.99
2019-06-07T04:28:19.777Z,99.99
2019-06-07T04:29:56.805Z,99.99
2019-06-07T04:30:20.758Z,99.99
2019-06-07T04:31:19.740Z,99.99
2019-06-07T04:32:19.740Z,99.99
2019-06-07T04:33:19.720Z,99.99
2019-06-07T04:34:19.720Z,99.99
2019-06-07T04:35:19.697Z,99.99
2019-06-07T04:36:38.938Z,99.99
2019-06-07T04:37:20.708Z,99.99
2019-06-07T04:38:19.686Z,99.99
2019-06-07T04:39:19.657Z,99.99
2019-06-07T04:40:19.644Z,99.99
2019-06-07T04:41:19.642Z,99.99
2019-06-07T04:42:19.672Z,99.99
2019-06-07T04:43:19.652Z,99.99
2019-06-07T04:44:19.598Z,99.99
2019-06-07T04:45:33.734Z,99.99
2019-06-07T04:46:20.580Z,99.99
2019-06-07T04:47:19.578Z,99.99
2019-06-07T04:48:19.555Z,99.99
2019-06-07T04:49:19.567Z,99.99
2019-06-07T04:50:19.535Z,99.99
2019-06-07T04:51:19.552Z,99.99
2019-06-07T04:52:19.524Z,99.99
2019-06-07T04:53:19.504Z,99.99
2019-06-07T04:54:19.492Z,99.99
2019-06-07T04:55:19.500Z,99.99
2019-06-07T04:56:19.490Z,99.99
2019-06-07T04:57:19.461Z,99.99
2019-06-07T04:58:19.463Z,99.99
2019-06-07T05:00:00.747Z,99.99
2019-06-07T05:00:47.194Z,99.99
2019-06-07T05:01:27.162Z,99.99
2019-06-07T05:02:20.416Z,99.99
2019-06-07T05:03:19.455Z,99.54
2019-06-07T05:04:19.384Z,99.08
2019-06-07T05:05:19.372Z,97.55
2019-06-07T05:06:19.368Z,96.18
2019-06-07T05:07:19.350Z,94.71
2019-06-07T05:08:27.898Z,95.37
2019-06-07T05:09:20.334Z,92.01
2019-06-07T05:10:19.414Z,92.68
2019-06-07T05:11:19.334Z,91.22
2019-06-07T05:12:19.295Z,92.29
2019-06-07T05:13:19.320Z,90.83
2019-06-07T05:14:19.285Z,89.05
2019-06-07T05:15:19.363Z,88.34
2019-06-07T05:16:19.275Z,85.39
2019-06-07T05:17:19.260Z,90.48
2019-06-07T05:18:19.350Z,86.76
2019-06-07T05:19:19.281Z,87.75
2019-06-07T05:20:19.219Z,88.67
2019-06-07T05:21:19.237Z,87.10
2019-06-07T05:22:19.187Z,88.18
2019-06-07T05:24:00.165Z,87.41
2019-06-07T05:24:20.187Z,88.71
2019-06-07T05:25:19.183Z,89.73
2019-06-07T05:26:19.144Z,88.39
2019-06-07T05:27:19.134Z,88.85
2019-06-07T05:28:19.133Z,85.90
2019-06-07T05:29:19.170Z,86.69
2019-06-07T05:30:57.700Z,89.48
2019-06-07T05:31:20.094Z,88.77
2019-06-07T05:32:19.085Z,88.36
2019-06-07T05:33:19.116Z,89.69
2019-06-07T05:34:19.057Z,89.89
2019-06-07T05:35:19.054Z,89.34
2019-06-07T05:36:19.079Z,88.69
2019-06-07T05:37:19.048Z,88.24
2019-06-07T05:38:19.056Z,87.85
2019-06-07T05:39:19.002Z,84.87
2019-06-07T05:40:19.021Z,82.26
2019-06-07T05:41:19.009Z,83.99
2019-06-07T05:42:18.971Z,85.58
2019-06-07T05:43:18.972Z,82.73
2019-06-07T05:44:18.971Z,84.18
2019-06-07T05:45:18.955Z,80.59
2019-06-07T05:46:18.950Z,81.67
2019-06-07T05:47:18.977Z,79.50
2019-06-07T05:48:18.933Z,82.10
2019-06-07T05:49:18.906Z,76.19
2019-06-07T05:50:39.299Z,78.20
2019-06-07T05:51:19.886Z,76.45
2019-06-07T05:52:18.872Z,75.31
2019-06-07T05:53:18.879Z,74.16
2019-06-07T05:54:18.891Z,73.62
2019-06-07T05:55:18.848Z,71.00
2019-06-07T05:56:18.907Z,71.37
2019-06-07T05:57:18.825Z,68.91
2019-06-07T05:58:19.075Z,69.09
2019-06-07T05:59:18.799Z,68.11
2019-06-07T06:00:18.783Z,69.02
2019-06-07T06:01:42.943Z,69.69
2019-06-07T06:02:24.596Z,67.07
2019-06-07T06:03:19.803Z,68.24
2019-06-07T06:04:18.733Z,68.01
2019-06-07T06:05:33.689Z,66.84
2019-06-07T06:06:19.750Z,67.48
2019-06-07T06:07:18.713Z,63.64
2019-06-07T06:08:18.829Z,63.37
2019-06-07T06:09:18.704Z,63.61
2019-06-07T06:10:18.757Z,63.71
2019-06-07T06:11:18.664Z,62.30
2019-06-07T06:12:33.944Z,63.49
2019-06-07T06:13:19.636Z,65.84
2019-06-07T06:14:18.642Z,67.61
2019-06-07T06:15:18.621Z,68.62
2019-06-07T06:16:18.597Z,67.21
2019-06-07T06:17:18.613Z,65.50
2019-06-07T06:18:18.601Z,67.38
2019-06-07T06:19:18.596Z,65.53
2019-06-07T06:20:18.580Z,64.00
2019-06-07T06:21:20.224Z,65.67
2019-06-07T06:22:18.547Z,64.14
2019-06-07T06:23:18.586Z,65.51
2019-06-07T06:24:18.563Z,63.90
2019-06-07T06:25:34.510Z,62.74
2019-06-07T06:26:19.502Z,63.37
2019-06-07T06:27:55.616Z,63.67
2019-06-07T06:28:19.489Z,63.75
2019-06-07T06:29:18.487Z,61.24
2019-06-07T06:30:18.457Z,63.96
2019-06-07T06:31:18.459Z,67.07
2019-06-07T06:33:32.939Z,69.05
2019-06-07T06:34:19.428Z,67.14
2019-06-07T06:35:18.429Z,70.19
2019-06-07T06:36:18.509Z,71.56
2019-06-07T06:37:18.378Z,70.66
2019-06-07T06:38:18.377Z,67.58
2019-06-07T06:39:18.443Z,67.58
2019-06-07T06:40:18.346Z,66.97
2019-06-07T06:41:18.335Z,68.31
2019-06-07T06:42:18.341Z,72.44
2019-06-07T06:43:18.324Z,72.44
2019-06-07T06:44:18.308Z,68.74
2019-06-07T06:45:18.293Z,70.22
2019-06-07T06:46:37.519Z,71.03
2019-06-07T06:47:19.263Z,72.27
2019-06-07T06:48:18.275Z,73.25
2019-06-07T06:49:18.674Z,72.54
2019-06-07T06:50:18.237Z,71.60
2019-06-07T06:51:18.234Z,68.32
2019-06-07T06:52:18.285Z,65.16
2019-06-07T06:53:18.221Z,67.81
2019-06-07T06:54:39.305Z,68.38
2019-06-07T06:55:19.226Z,65.94
2019-06-07T06:56:18.210Z,65.70
2019-06-07T06:57:20.305Z,66.00
2019-06-07T06:58:18.169Z,65.67
2019-06-07T07:00:19.129Z,63.31
2019-06-07T07:01:18.127Z,65.88
2019-06-07T07:02:18.092Z,62.73
2019-06-07T07:04:19.142Z,64.04
2019-06-07T07:05:18.077Z,63.11
2019-06-07T07:06:26.057Z,61.85
2019-06-07T07:07:19.038Z,58.75
2019-06-07T07:08:18.049Z,61.15
2019-06-07T07:09:18.041Z,64.63
2019-06-07T07:10:18.070Z,69.66
2019-06-07T07:11:18.028Z,62.80
2019-06-07T07:12:17.998Z,63.93
2019-06-07T07:13:17.987Z,63.79
2019-06-07T07:14:17.976Z,63.13
2019-06-07T07:15:17.973Z,61.27
2019-06-07T07:16:17.938Z,63.18
2019-06-07T07:17:17.932Z,59.59
2019-06-07T07:18:17.945Z,59.27
2019-06-07T07:19:17.998Z,59.53
2019-06-07T07:20:17.927Z,57.67
2019-06-07T07:21:17.962Z,61.79
2019-06-07T07:22:17.936Z,59.82
2019-06-07T07:23:17.887Z,61.49
2019-06-07T07:24:21.799Z,58.80
2019-06-07T07:25:17.856Z,57.59
2019-06-07T07:26:17.873Z,59.56
2019-06-07T07:27:17.859Z,58.00
2019-06-07T07:28:17.814Z,57.54
2019-06-07T07:29:17.809Z,57.39
2019-06-07T07:30:36.143Z,59.12
2019-06-07T07:31:18.797Z,56.40
2019-06-07T07:32:17.817Z,55.28
2019-06-07T07:33:17.791Z,57.47
2019-06-07T07:34:33.999Z,55.33
2019-06-07T07:35:18.768Z,53.61
2019-06-07T07:36:37.587Z,59.62
2019-06-07T07:37:18.755Z,55.13
2019-06-07T07:38:17.730Z,60.39
2019-06-07T07:39:17.695Z,55.34
2019-06-07T07:41:18.669Z,60.92
2019-06-07T07:42:21.572Z,60.69
2019-06-07T07:43:17.724Z,60.69
2019-06-07T07:44:17.652Z,61.55
2019-06-07T07:45:17.639Z,62.49
2019-06-07T07:46:29.189Z,60.38
2019-06-07T07:47:18.611Z,60.75
2019-06-07T07:48:18.638Z,61.08
2019-06-07T07:49:17.591Z,60.29
2019-06-07T07:50:17.591Z,58.54
2019-06-07T07:51:17.566Z,57.93
2019-06-07T07:52:17.578Z,58.92
2019-06-07T07:53:17.644Z,60.08
2019-06-07T07:54:17.538Z,59.95
2019-06-07T07:55:17.620Z,62.22
2019-06-07T07:56:17.522Z,63.23
2019-06-07T07:57:17.497Z,60.45
2019-06-07T07:58:17.526Z,57.20
2019-06-07T07:59:17.499Z,58.76
2019-06-07T08:00:49.263Z,57.97
2019-06-07T08:01:18.464Z,60.53
2019-06-07T08:02:17.439Z,57.42
2019-06-07T08:03:17.486Z,54.08
2019-06-07T08:04:17.473Z,57.35
2019-06-07T08:05:25.712Z,57.93
2019-06-07T08:06:18.444Z,59.09
2019-06-07T08:07:17.460Z,58.47
2019-06-07T08:08:17.424Z,58.57
2019-06-07T08:09:17.373Z,57.29
2019-06-07T08:10:17.399Z,57.49
2019-06-07T08:11:17.353Z,56.00
2019-06-07T08:12:17.336Z,58.87
2019-06-07T08:13:25.444Z,61.23
2019-06-07T08:14:18.301Z,59.14
2019-06-07T08:15:17.305Z,58.88
2019-06-07T08:16:18.843Z,57.86
2019-06-07T08:17:17.305Z,56.87
2019-06-07T08:18:17.275Z,58.41
2019-06-07T08:19:17.258Z,59.34
2019-06-07T08:20:17.259Z,62.59
2019-06-07T08:21:25.738Z,61.27
2019-06-07T08:22:18.222Z,61.11
2019-06-07T08:23:17.206Z,58.97
2019-06-07T08:24:17.200Z,56.98
2019-06-07T08:25:17.194Z,56.95
2019-06-07T08:26:17.174Z,53.88
2019-06-07T08:27:25.803Z,55.83
2019-06-07T08:28:18.151Z,53.36
2019-06-07T08:29:17.140Z,55.96
2019-06-07T08:30:47.366Z,55.57
2019-06-07T08:31:18.150Z,54.08
2019-06-07T08:32:17.138Z,57.55
2019-06-07T08:33:26.101Z,57.15
2019-06-07T08:34:18.100Z,54.87
2019-06-07T08:36:02.464Z,57.25
2019-06-07T08:36:25.183Z,54.40
2019-06-07T08:37:18.059Z,59.99
2019-06-07T08:38:29.873Z,58.25
2019-06-07T08:39:18.069Z,55.07
2019-06-07T08:40:17.056Z,56.34
2019-06-07T08:41:17.024Z,56.40
2019-06-07T08:42:21.942Z,58.16
2019-06-07T08:43:21.038Z,54.99
2019-06-07T08:44:23.676Z,55.61
2019-06-07T08:45:17.970Z,53.90
2019-06-07T08:46:16.970Z,52.29
2019-06-07T08:47:20.899Z,53.26
2019-06-07T08:48:27.505Z,54.33
2019-06-07T08:49:17.923Z,57.11
2019-06-07T08:50:16.934Z,59.83
2019-06-07T08:51:16.923Z,56.36
2019-06-07T08:52:16.909Z,55.66
2019-06-07T08:53:16.888Z,53.61
2019-06-07T08:54:22.966Z,58.53
2019-06-07T08:55:17.868Z,55.85
2019-06-07T08:56:16.874Z,61.18
2019-06-07T08:57:21.352Z,57.78
2019-06-07T08:58:17.888Z,57.11
2019-06-07T08:59:16.822Z,61.51
2019-06-07T09:00:42.945Z,55.72
2019-06-07T09:01:17.806Z,57.06
2019-06-07T09:02:23.619Z,57.25
2019-06-07T09:03:17.799Z,58.72
2019-06-07T09:04:16.763Z,55.64
2019-06-07T09:05:16.765Z,58.44
2019-06-07T09:07:01.192Z,60.63
2019-06-07T09:07:19.794Z,58.97
2019-06-07T09:08:30.389Z,55.19
2019-06-07T09:09:17.729Z,54.85
2019-06-07T09:10:16.723Z,56.83
2019-06-07T09:11:16.697Z,57.55
2019-06-07T09:12:16.678Z,54.10
2019-06-07T09:13:16.665Z,59.19
2019-06-07T09:14:16.669Z,56.27
2019-06-07T09:15:23.616Z,57.36
2019-06-07T09:16:17.666Z,58.07
2019-06-07T09:17:16.643Z,56.76
2019-06-07T09:18:40.903Z,58.26
2019-06-07T09:19:17.605Z,56.77
2019-06-07T09:20:35.554Z,58.57
2019-06-07T09:21:17.615Z,59.53
2019-06-07T09:22:16.576Z,58.15
2019-06-07T09:23:17.770Z,58.72
2019-06-07T09:24:16.551Z,56.87
2019-06-07T09:25:20.882Z,56.05
2019-06-07T09:26:18.916Z,53.85
2019-06-07T09:27:16.540Z,54.91
2019-06-07T09:28:20.282Z,57.75
2019-06-07T09:29:16.524Z,56.76
2019-06-07T09:30:19.014Z,56.37
2019-06-07T09:31:16.486Z,57.43
2019-06-07T09:32:18.623Z,57.33
2019-06-07T09:33:16.455Z,52.76
2019-06-07T09:34:16.451Z,50.85
2019-06-07T09:35:17.423Z,53.85
2019-06-07T09:36:16.437Z,54.37
2019-06-07T09:38:03.693Z,55.60
2019-06-07T09:38:25.814Z,52.34
2019-06-07T09:39:17.386Z,52.66
2019-06-07T09:40:27.112Z,55.13
2019-06-07T09:41:17.380Z,54.61
2019-06-07T09:42:16.367Z,53.65
2019-06-07T09:43:59.815Z,53.70
2019-06-07T09:44:24.675Z,56.15
2019-06-07T09:45:17.326Z,53.25
2019-06-07T09:46:16.927Z,58.53
2019-06-07T09:47:31.183Z,58.73
2019-06-07T09:49:01.329Z,57.09
2019-06-07T09:49:30.706Z,53.00
2019-06-07T09:50:17.275Z,54.66
2019-06-07T09:51:19.720Z,55.65
2019-06-07T09:52:16.254Z,55.05
2019-06-07T09:53:22.493Z,54.34
2019-06-07T09:55:02.099Z,53.89
2019-06-07T09:55:24.311Z,51.69
2019-06-07T09:56:17.224Z,53.27
2019-06-07T09:57:17.700Z,55.66
2019-06-07T09:58:51.005Z,51.72
2019-06-07T09:59:17.178Z,52.88
2019-06-07T10:00:40.080Z,52.34
2019-06-07T10:01:17.174Z,53.28
2019-06-07T10:02:16.160Z,58.13
2019-06-07T10:03:21.329Z,54.14
2019-06-07T10:04:30.811Z,55.76
2019-06-07T10:05:17.125Z,55.78
2019-06-07T10:06:16.119Z,54.10
2019-06-07T10:07:30.762Z,56.55
2019-06-07T10:09:26.142Z,57.90
2019-06-07T10:11:17.081Z,58.49
2019-06-07T10:12:16.052Z,52.66
2019-06-07T10:13:16.035Z,55.43
2019-06-07T10:14:16.045Z,53.30
2019-06-07T10:15:16.022Z,51.07
2019-06-07T10:16:16.047Z,56.24
2019-06-07T10:17:16.018Z,55.05
2019-06-07T10:18:16.001Z,54.73
2019-06-07T10:19:16.013Z,56.91
2019-06-07T10:20:15.973Z,55.94
2019-06-07T10:21:15.958Z,54.10
2019-06-07T10:22:15.972Z,61.54
2019-06-07T10:23:15.931Z,61.07
2019-06-07T10:24:15.927Z,55.01
2019-06-07T10:25:15.912Z,56.67
2019-06-07T10:26:15.903Z,53.33
2019-06-07T10:27:15.905Z,56.67
2019-06-07T10:28:15.881Z,53.64
2019-06-07T10:29:15.874Z,53.92
2019-06-07T10:30:15.868Z,53.03
2019-06-07T10:31:15.849Z,53.22
2019-06-07T10:32:15.850Z,57.02
2019-06-07T10:33:15.828Z,51.13
2019-06-07T10:34:15.825Z,54.85
2019-06-07T10:35:16.649Z,55.91
2019-06-07T10:36:15.807Z,54.70
2019-06-07T10:37:16.045Z,54.70
2019-06-07T10:38:15.782Z,54.38
2019-06-07T10:39:15.775Z,55.24
2019-06-07T10:40:15.757Z,50.61
2019-06-07T10:41:15.756Z,55.93
2019-06-07T10:42:15.757Z,50.09
2019-06-07T10:43:15.744Z,51.74
2019-06-07T10:44:15.733Z,52.95
2019-06-07T10:45:15.711Z,51.40
2019-06-07T10:46:15.721Z,52.90
2019-06-07T10:47:15.705Z,54.84
2019-06-07T10:48:15.689Z,48.47
2019-06-07T10:49:15.681Z,51.32
2019-06-07T10:50:15.666Z,53.36
2019-06-07T10:51:15.654Z,56.12
2019-06-07T10:52:15.721Z,51.74
2019-06-07T10:53:15.633Z,53.27
2019-06-07T10:54:25.831Z,54.28
2019-06-07T10:55:16.614Z,54.58
2019-06-07T10:56:15.601Z,52.61
2019-06-07T10:57:16.351Z,54.75
2019-06-07T10:58:15.590Z,55.47
2019-06-07T10:59:15.585Z,52.21
2019-06-07T11:00:15.564Z,51.47
2019-06-07T11:01:15.571Z,52.29
2019-06-07T11:02:15.565Z,55.08
2019-06-07T11:03:15.539Z,58.61
2019-06-07T11:04:15.532Z,54.79
2019-06-07T11:05:15.516Z,53.45
2019-06-07T11:06:15.505Z,53.97
2019-06-07T11:07:15.507Z,56.81
2019-06-07T11:08:15.487Z,53.12
2019-06-07T11:09:15.474Z,52.70
2019-06-07T11:10:19.392Z,51.62
2019-06-07T11:11:15.453Z,54.54
2019-06-07T11:12:15.520Z,55.63
2019-06-07T11:13:15.441Z,55.76
2019-06-07T11:14:15.429Z,55.73
2019-06-07T11:15:15.418Z,58.07
2019-06-07T11:16:15.856Z,54.59
2019-06-07T11:17:15.887Z,57.58
2019-06-07T11:18:15.390Z,54.69
2019-06-07T11:19:17.756Z,60.17
2019-06-07T11:20:15.368Z,55.22
2019-06-07T11:21:15.361Z,57.10
2019-06-07T11:22:15.363Z,54.73
2019-06-07T11:23:15.344Z,57.20
2019-06-07T11:24:18.658Z,57.10
2019-06-07T11:25:16.320Z,52.24
2019-06-07T11:26:15.316Z,57.05
2019-06-07T11:27:16.354Z,53.77
2019-06-07T11:28:15.289Z,55.74
2019-06-07T11:29:15.280Z,52.39
2019-06-07T11:30:15.274Z,53.72
2019-06-07T11:31:15.285Z,55.66
2019-06-07T11:32:15.272Z,55.05
2019-06-07T11:33:16.501Z,51.97
2019-06-07T11:34:15.231Z,53.54
2019-06-07T11:35:15.598Z,52.75
2019-06-07T11:36:15.437Z,58.05
2019-06-07T11:37:16.169Z,51.89
2019-06-07T11:38:15.194Z,57.79
2019-06-07T11:39:15.287Z,52.97
2019-06-07T11:40:30.224Z,54.08
2019-06-07T11:41:16.166Z,56.15
2019-06-07T11:42:15.170Z,53.07
2019-06-07T11:43:15.145Z,52.75
2019-06-07T11:44:15.139Z,50.78
2019-06-07T11:45:15.520Z,50.34
2019-06-07T11:46:15.269Z,53.12
2019-06-07T11:47:15.298Z,51.72
2019-06-07T11:48:15.536Z,53.34
2019-06-07T11:49:20.370Z,50.21
2019-06-07T11:50:16.088Z,54.91
2019-06-07T11:51:15.081Z,53.36
2019-06-07T11:52:15.814Z,51.32
2019-06-07T11:53:15.065Z,51.81
2019-06-07T11:54:16.245Z,50.83
2019-06-07T11:55:15.789Z,50.61
2019-06-07T11:56:16.033Z,51.50
2019-06-07T11:57:15.212Z,52.09
2019-06-07T11:58:18.991Z,52.01
2019-06-07T11:59:17.340Z,53.99
2019-06-07T12:00:16.445Z,55.66
2019-06-07T12:01:16.749Z,56.99
2019-06-07T12:02:15.499Z,57.62
2019-06-07T12:03:15.842Z,53.42
2019-06-07T12:04:31.092Z,53.77
2019-06-07T12:05:18.394Z,54.68
2019-06-07T12:06:16.269Z,51.00
2019-06-07T12:07:15.812Z,51.76
2019-06-07T12:08:15.879Z,52.65
2019-06-07T12:09:16.664Z,53.31
2019-06-07T12:10:19.117Z,52.23
2019-06-07T12:11:16.501Z,51.52
2019-06-07T12:12:14.881Z,53.49
2019-06-07T12:13:15.563Z,57.26
2019-06-07T12:14:14.868Z,53.60
2019-06-07T12:15:15.108Z,50.54
2019-06-07T12:16:15.419Z,52.50
2019-06-07T12:17:15.458Z,50.51
2019-06-07T12:18:15.188Z,49.46
2019-06-07T12:19:15.527Z,50.59
2019-06-07T12:20:16.737Z,53.47
2019-06-07T12:21:15.824Z,54.39
2019-06-07T12:22:15.847Z,56.43
2019-06-07T12:23:16.019Z,53.58
2019-06-07T12:24:16.121Z,51.40
2019-06-07T12:25:19.718Z,55.10
2019-06-07T12:26:16.580Z,52.75
2019-06-07T12:27:14.845Z,53.75
2019-06-07T12:28:14.742Z,54.32
2019-06-07T12:29:14.963Z,54.14
2019-06-07T12:30:23.120Z,55.33
2019-06-07T12:31:17.076Z,51.91
2019-06-07T12:32:15.357Z,53.39
2019-06-07T12:33:15.482Z,51.40
2019-06-07T12:34:15.526Z,52.82
2019-06-07T12:35:15.692Z,51.20
2019-06-07T12:36:15.940Z,52.25
2019-06-07T12:37:18.947Z,48.23
2019-06-07T12:38:17.381Z,50.49
2019-06-07T12:39:14.629Z,52.69
2019-06-07T12:40:22.312Z,52.75
2019-06-07T12:41:16.135Z,51.37
2019-06-07T12:42:14.965Z,48.62
2019-06-07T12:43:14.692Z,53.09
2019-06-07T12:44:14.671Z,51.99
2019-06-07T12:45:32.370Z,56.77
2019-06-07T12:46:21.023Z,54.87
2019-06-07T12:47:16.666Z,56.46
2019-06-07T12:48:17.655Z,52.21
2019-06-07T12:49:15.541Z,51.81
2019-06-07T12:50:15.403Z,54.08
2019-06-07T12:51:15.194Z,51.76
2019-06-07T12:52:17.407Z,56.77
2019-06-07T12:53:15.686Z,51.27
2019-06-07T12:54:15.439Z,51.67
2019-06-07T12:55:15.896Z,52.09
2019-06-07T12:56:15.664Z,54.64
2019-06-07T12:57:16.185Z,53.05
2019-06-07T12:58:15.801Z,57.51
2019-06-07T12:59:14.440Z,53.73